LHSM/SOB METAR and TAF weather

Enter ICAO airport designator
Station Type Date Time Source
LHSM METAR 2021/09/25 12:15 UTC NOAA

LHSM 251215Z AUTO 17008KT 140V200 9000 NCD 24/14 Q1020 NOSIG


Station Type Date Time Source
LHSM Decoded METAR 2021/09/25 12:15 UTC NOAA

Station name not available
Sep 25, 2021 - 08:15 AM EDT / 2021.09.25 1215 UTC
Wind: from the S (170 degrees) at 9 MPH (8 KT) (direction variable):0
Visibility: 5 mile(s):0
Temperature: 75 F (24 C)
Dew Point: 57 F (14 C)
Relative Humidity: 53%
Pressure (altimeter): 30.12 in. Hg (1020 hPa)
ob: LHSM 251215Z AUTO 17008KT 140V200 9000 NCD 24/14 Q1020 NOSIG
cycle: 12

Station Type Date Time Source
LHSM TAF UTC NOAA

Error!

Example: see airport list